SWA2016 PHNL-PHKO
Flight info
| Callsign | SWA2016 |
|---|---|
| Flight time | 0h 29m |
| Altitude | 23000 |
| Route | PALAY3 LNY VECKI9 |
| Aircraft | B38M/M-SADE2E3GHIJ4J7P2RWZ/LB1D1 |
Departure
| Time | 2026-05-06 19:26 |
|---|---|
| Airport | Daniel K. Inouye International Airport (PHNL) |
Arrival
| Time | 2026-05-06 19:55 |
|---|---|
| Airport | Ellison Onizuka Kona International Airport at Keāhole (PHKO) |
| Time | Latitude | Longitude | Altitude | Speed | Heading |
|---|---|---|---|---|---|
| 2026-05-06 19:05 | 21.33060 | -157.92058 | 26 ft | 0 kts | 99° |
| 2026-05-06 19:16 | 21.33062 | -157.92066 | 26 ft | 4 kts | 99° |
| 2026-05-06 19:17 | 21.33065 | -157.92090 | 26 ft | 4 kts | 97° |
| 2026-05-06 19:17 | 21.33064 | -157.92117 | 26 ft | 4 kts | 66° |
| 2026-05-06 19:17 | 21.33048 | -157.92134 | 26 ft | 4 kts | 12° |
| 2026-05-06 19:17 | 21.33023 | -157.92139 | 26 ft | 4 kts | 9° |
| 2026-05-06 19:18 | 21.32996 | -157.92143 | 26 ft | 4 kts | 9° |
| 2026-05-06 19:18 | 21.32970 | -157.92148 | 26 ft | 4 kts | 9° |
| 2026-05-06 19:18 | 21.32943 | -157.92153 | 26 ft | 4 kts | 9° |
| 2026-05-06 19:18 | 21.32916 | -157.92157 | 26 ft | 4 kts | 9° |
| 2026-05-06 19:19 | 21.32889 | -157.92162 | 26 ft | 4 kts | 9° |
| 2026-05-06 19:19 | 21.32868 | -157.92165 | 26 ft | 4 kts | 9° |
| 2026-05-06 19:19 | 21.32841 | -157.92169 | 26 ft | 4 kts | 8° |
| 2026-05-06 19:19 | 21.32815 | -157.92176 | 27 ft | 4 kts | 25° |
| 2026-05-06 19:20 | 21.32794 | -157.92190 | 27 ft | 4 kts | 40° |
| 2026-05-06 19:20 | 21.32777 | -157.92211 | 27 ft | 4 kts | 67° |
| 2026-05-06 19:20 | 21.32772 | -157.92238 | 27 ft | 4 kts | 90° |
| 2026-05-06 19:20 | 21.32772 | -157.92264 | 27 ft | 4 kts | 90° |
| 2026-05-06 19:21 | 21.32773 | -157.92289 | 27 ft | 1 kts | 90° |
| 2026-05-06 19:23 | 21.32772 | -157.92286 | 27 ft | 2 kts | 98° |
| 2026-05-06 19:23 | 21.32719 | -157.92258 | 27 ft | 17 kts | 174° |
| 2026-05-06 19:23 | 21.32554 | -157.92246 | 27 ft | 30 kts | 164° |
| 2026-05-06 19:24 | 21.32361 | -157.92135 | 27 ft | 33 kts | 150° |
| 2026-05-06 19:24 | 21.32191 | -157.92056 | 26 ft | 18 kts | 207° |
| 2026-05-06 19:24 | 21.32105 | -157.92166 | 26 ft | 21 kts | 232° |
| 2026-05-06 19:24 | 21.32000 | -157.92315 | 27 ft | 29 kts | 233° |
| 2026-05-06 19:25 | 21.31874 | -157.92342 | 27 ft | 20 kts | 134° |
| 2026-05-06 19:25 | 21.31971 | -157.92141 | 27 ft | 64 kts | 52° |
| 2026-05-06 19:25 | 21.32410 | -157.91520 | 26 ft | 142 kts | 53° |
| 2026-05-06 19:25 | 21.33102 | -157.90547 | 375 ft | 175 kts | 52° |
| 2026-05-06 19:26 | 21.33801 | -157.89490 | 1370 ft | 172 kts | 69° |
| 2026-05-06 19:26 | 21.33848 | -157.88203 | 2177 ft | 181 kts | 106° |
| 2026-05-06 19:26 | 21.33307 | -157.86942 | 2880 ft | 198 kts | 122° |
| 2026-05-06 19:26 | 21.32459 | -157.85721 | 3741 ft | 203 kts | 128° |
| 2026-05-06 19:27 | 21.31615 | -157.84525 | 4768 ft | 208 kts | 127° |
| 2026-05-06 19:27 | 21.30646 | -157.83217 | 5283 ft | 236 kts | 129° |
| 2026-05-06 19:27 | 21.29584 | -157.81870 | 6340 ft | 232 kts | 129° |
| 2026-05-06 19:27 | 21.28622 | -157.80546 | 7645 ft | 220 kts | 126° |
| 2026-05-06 19:28 | 21.27736 | -157.79161 | 8393 ft | 237 kts | 123° |
| 2026-05-06 19:28 | 21.26794 | -157.77555 | 8646 ft | 271 kts | 121° |
| 2026-05-06 19:28 | 21.25627 | -157.75918 | 9443 ft | 277 kts | 136° |
| 2026-05-06 19:28 | 21.24247 | -157.74460 | 10384 ft | 284 kts | 134° |
| 2026-05-06 19:29 | 21.22863 | -157.72857 | 10921 ft | 303 kts | 131° |
| 2026-05-06 19:29 | 21.21429 | -157.71101 | 11404 ft | 322 kts | 130° |
| 2026-05-06 19:29 | 21.19951 | -157.69231 | 12032 ft | 335 kts | 130° |
| 2026-05-06 19:29 | 21.18455 | -157.67310 | 12905 ft | 337 kts | 129° |
| 2026-05-06 19:30 | 21.16952 | -157.65362 | 13690 ft | 342 kts | 129° |
| 2026-05-06 19:30 | 21.15457 | -157.63414 | 14468 ft | 345 kts | 129° |
| 2026-05-06 19:30 | 21.13924 | -157.61412 | 15219 ft | 349 kts | 129° |
| 2026-05-06 19:30 | 21.12354 | -157.59360 | 15956 ft | 353 kts | 129° |
| 2026-05-06 19:31 | 21.10817 | -157.57336 | 16645 ft | 357 kts | 127° |
| 2026-05-06 19:31 | 21.09524 | -157.55060 | 17312 ft | 360 kts | 120° |
| 2026-05-06 19:31 | 21.06943 | -157.50394 | 18591 ft | 368 kts | 121° |
| 2026-05-06 19:32 | 21.05613 | -157.48040 | 19233 ft | 371 kts | 121° |
| 2026-05-06 19:32 | 21.04266 | -157.45673 | 19833 ft | 374 kts | 121° |
| 2026-05-06 19:32 | 21.02900 | -157.43278 | 20421 ft | 378 kts | 121° |
| 2026-05-06 19:32 | 21.01525 | -157.40870 | 21000 ft | 381 kts | 121° |
| 2026-05-06 19:33 | 21.00137 | -157.38445 | 21562 ft | 384 kts | 121° |
| 2026-05-06 19:33 | 20.98737 | -157.35996 | 22105 ft | 387 kts | 121° |
| 2026-05-06 19:33 | 20.97324 | -157.33528 | 22637 ft | 390 kts | 121° |
| 2026-05-06 19:33 | 20.95894 | -157.31030 | 22935 ft | 397 kts | 121° |
| 2026-05-06 19:34 | 20.94431 | -157.28478 | 22965 ft | 407 kts | 121° |
| 2026-05-06 19:34 | 20.92949 | -157.25888 | 22985 ft | 410 kts | 121° |
| 2026-05-06 19:34 | 20.91469 | -157.23279 | 22994 ft | 410 kts | 121° |
| 2026-05-06 19:34 | 20.89987 | -157.20667 | 23000 ft | 410 kts | 121° |
| 2026-05-06 19:35 | 20.88505 | -157.18058 | 22998 ft | 410 kts | 121° |
| 2026-05-06 19:35 | 20.87023 | -157.15452 | 22999 ft | 410 kts | 121° |
| 2026-05-06 19:35 | 20.85530 | -157.12827 | 22998 ft | 418 kts | 121° |
| 2026-05-06 19:35 | 20.84001 | -157.10140 | 22996 ft | 429 kts | 121° |
| 2026-05-06 19:36 | 20.82438 | -157.07395 | 22891 ft | 430 kts | 121° |
| 2026-05-06 19:36 | 20.80900 | -157.04696 | 22622 ft | 421 kts | 121° |
| 2026-05-06 19:36 | 20.79355 | -157.01983 | 22238 ft | 431 kts | 121° |
| 2026-05-06 19:36 | 20.77789 | -156.99237 | 21806 ft | 434 kts | 121° |
| 2026-05-06 19:37 | 20.76169 | -156.96523 | 21253 ft | 433 kts | 127° |
| 2026-05-06 19:37 | 20.74308 | -156.93998 | 20725 ft | 431 kts | 128° |
| 2026-05-06 19:37 | 20.72485 | -156.91483 | 20267 ft | 425 kts | 127° |
| 2026-05-06 19:37 | 20.70699 | -156.88991 | 19737 ft | 419 kts | 127° |
| 2026-05-06 19:38 | 20.68951 | -156.86537 | 19248 ft | 412 kts | 127° |
| 2026-05-06 19:38 | 20.67233 | -156.84119 | 18780 ft | 406 kts | 127° |
| 2026-05-06 19:38 | 20.65546 | -156.81743 | 18329 ft | 399 kts | 127° |
| 2026-05-06 19:38 | 20.63882 | -156.79400 | 17897 ft | 393 kts | 127° |
| 2026-05-06 19:39 | 20.62243 | -156.77094 | 17473 ft | 387 kts | 127° |
| 2026-05-06 19:39 | 20.60627 | -156.74820 | 17058 ft | 382 kts | 127° |
| 2026-05-06 19:39 | 20.59029 | -156.72573 | 16647 ft | 377 kts | 127° |
| 2026-05-06 19:39 | 20.57452 | -156.70355 | 16222 ft | 373 kts | 127° |
| 2026-05-06 19:40 | 20.55892 | -156.68164 | 15810 ft | 369 kts | 127° |
| 2026-05-06 19:40 | 20.54348 | -156.65995 | 15401 ft | 365 kts | 127° |
| 2026-05-06 19:40 | 20.52821 | -156.63850 | 14997 ft | 361 kts | 127° |
| 2026-05-06 19:40 | 20.51314 | -156.61734 | 14636 ft | 357 kts | 127° |
| 2026-05-06 19:41 | 20.49819 | -156.59637 | 14219 ft | 354 kts | 127° |
| 2026-05-06 19:41 | 20.48336 | -156.57557 | 13812 ft | 350 kts | 127° |
| 2026-05-06 19:41 | 20.46861 | -156.55503 | 13395 ft | 348 kts | 127° |
| 2026-05-06 19:41 | 20.45417 | -156.53492 | 13011 ft | 344 kts | 127° |
| 2026-05-06 19:42 | 20.43970 | -156.51477 | 12648 ft | 340 kts | 127° |
| 2026-05-06 19:42 | 20.42518 | -156.49455 | 12275 ft | 337 kts | 127° |
| 2026-05-06 19:42 | 20.41119 | -156.47509 | 11916 ft | 333 kts | 127° |
| 2026-05-06 19:42 | 20.39716 | -156.45556 | 11527 ft | 331 kts | 127° |
| 2026-05-06 19:43 | 20.38323 | -156.43617 | 11165 ft | 328 kts | 127° |
| 2026-05-06 19:43 | 20.36943 | -156.41699 | 10812 ft | 325 kts | 127° |
| 2026-05-06 19:43 | 20.35600 | -156.39833 | 10630 ft | 308 kts | 127° |
| 2026-05-06 19:43 | 20.34335 | -156.38075 | 10523 ft | 293 kts | 127° |
| 2026-05-06 19:44 | 20.33117 | -156.36382 | 10390 ft | 284 kts | 127° |
| 2026-05-06 19:44 | 20.31933 | -156.34738 | 10251 ft | 275 kts | 127° |
| 2026-05-06 19:44 | 20.30787 | -156.33147 | 10128 ft | 266 kts | 127° |
| 2026-05-06 19:44 | 20.29677 | -156.31607 | 9988 ft | 258 kts | 127° |
| 2026-05-06 19:45 | 20.28592 | -156.30101 | 9785 ft | 258 kts | 127° |
| 2026-05-06 19:45 | 20.27482 | -156.28561 | 9510 ft | 265 kts | 127° |
| 2026-05-06 19:45 | 20.26351 | -156.26992 | 9233 ft | 268 kts | 127° |
| 2026-05-06 19:45 | 20.25212 | -156.25413 | 8934 ft | 269 kts | 127° |
| 2026-05-06 19:46 | 20.24073 | -156.23834 | 8641 ft | 268 kts | 127° |
| 2026-05-06 19:46 | 20.22943 | -156.22268 | 8355 ft | 266 kts | 127° |
| 2026-05-06 19:46 | 20.21822 | -156.20716 | 8085 ft | 263 kts | 128° |
| 2026-05-06 19:46 | 20.20711 | -156.19177 | 7782 ft | 261 kts | 127° |
| 2026-05-06 19:47 | 20.19607 | -156.17647 | 7497 ft | 260 kts | 127° |
| 2026-05-06 19:47 | 20.18510 | -156.16128 | 7230 ft | 257 kts | 127° |
| 2026-05-06 19:47 | 20.17428 | -156.14631 | 6971 ft | 254 kts | 127° |
| 2026-05-06 19:47 | 20.16350 | -156.13140 | 6690 ft | 253 kts | 127° |
| 2026-05-06 19:48 | 20.15280 | -156.11660 | 6405 ft | 252 kts | 127° |
| 2026-05-06 19:48 | 20.14217 | -156.10190 | 6141 ft | 250 kts | 127° |
| 2026-05-06 19:48 | 20.13161 | -156.08729 | 5885 ft | 248 kts | 127° |
| 2026-05-06 19:48 | 20.12112 | -156.07280 | 5610 ft | 246 kts | 127° |
| 2026-05-06 19:49 | 20.11070 | -156.05842 | 5349 ft | 244 kts | 127° |
| 2026-05-06 19:49 | 20.09999 | -156.04447 | 5076 ft | 243 kts | 138° |
| 2026-05-06 19:49 | 20.08537 | -156.03607 | 4789 ft | 240 kts | 167° |
| 2026-05-06 19:49 | 20.06883 | -156.03410 | 4561 ft | 242 kts | 176° |
| 2026-05-06 19:50 | 20.05209 | -156.03311 | 4390 ft | 238 kts | 177° |
| 2026-05-06 19:50 | 20.03566 | -156.03235 | 4268 ft | 238 kts | 178° |
| 2026-05-06 19:50 | 20.01886 | -156.03168 | 4173 ft | 244 kts | 178° |
| 2026-05-06 19:50 | 20.00179 | -156.03108 | 4038 ft | 248 kts | 178° |
| 2026-05-06 19:51 | 19.98442 | -156.03052 | 3886 ft | 251 kts | 178° |
| 2026-05-06 19:51 | 19.96708 | -156.02999 | 3736 ft | 247 kts | 178° |
| 2026-05-06 19:51 | 19.95034 | -156.02950 | 3573 ft | 242 kts | 178° |
| 2026-05-06 19:51 | 19.93357 | -156.02904 | 3394 ft | 240 kts | 178° |
| 2026-05-06 19:52 | 19.91679 | -156.02970 | 3120 ft | 243 kts | 185° |
| 2026-05-06 19:52 | 19.90001 | -156.03135 | 2825 ft | 242 kts | 185° |
| 2026-05-06 19:52 | 19.88337 | -156.03289 | 2494 ft | 236 kts | 185° |
| 2026-05-06 19:52 | 19.86761 | -156.03428 | 2151 ft | 219 kts | 185° |
| 2026-05-06 19:53 | 19.85303 | -156.03553 | 1860 ft | 202 kts | 185° |
| 2026-05-06 19:53 | 19.83985 | -156.03665 | 1616 ft | 178 kts | 185° |
| 2026-05-06 19:53 | 19.82838 | -156.03761 | 1431 ft | 154 kts | 185° |
| 2026-05-06 19:53 | 19.81825 | -156.03853 | 1206 ft | 139 kts | 185° |
| 2026-05-06 19:54 | 19.80913 | -156.03935 | 1010 ft | 132 kts | 185° |
| 2026-05-06 19:54 | 19.79987 | -156.04039 | 833 ft | 139 kts | 187° |
| 2026-05-06 19:54 | 19.79006 | -156.04158 | 714 ft | 144 kts | 186° |
| 2026-05-06 19:54 | 19.77995 | -156.04236 | 619 ft | 147 kts | 183° |
| 2026-05-06 19:55 | 19.76968 | -156.04311 | 422 ft | 144 kts | 184° |
| 2026-05-06 19:55 | 19.75972 | -156.04385 | 211 ft | 143 kts | 184° |
| 2026-05-06 19:55 | 19.75001 | -156.04467 | 55 ft | 132 kts | 185° |
| 2026-05-06 19:55 | 19.74314 | -156.04526 | 48 ft | 47 kts | 185° |
| 2026-05-06 19:56 | 19.74134 | -156.04455 | 47 ft | 28 kts | 96° |
| 2026-05-06 19:56 | 19.74067 | -156.04290 | 45 ft | 23 kts | 179° |
| 2026-05-06 19:56 | 19.73892 | -156.04307 | 45 ft | 28 kts | 184° |
| 2026-05-06 19:56 | 19.73790 | -156.04236 | 45 ft | 20 kts | 110° |
| 2026-05-06 19:57 | 19.73760 | -156.04196 | 49 ft | 0 kts | 135° |